Terminal Aerodrome Forecast
Issued by NWS

Home | Current Version | Previous Version | Text Only | Print | Product List | Glossary On
Versions: 1 2 3 4 5 6 7 8 9 10 11 12 13 14 15 16 17 18 19 20 21 22 23 24 25 26 27 28 29 30
000
FTUS45 KABQ 312339 AAQ
TAFSAF
TAF AMD
KSAF 312339Z 0100/0124 12011KT P6SM VCSH BKN090
     FM010400 04011KT P6SM BKN090
     FM010600 07008KT P6SM SCT090
     FM011700 16007KT P6SM FEW090 SCT250
     FM012200 VRB15G25KT P6SM VCTS SCT050 BKN090CB=

USA.gov is the U.S. government's official web portal to all federal, state and local government web resources and services.